Time;durP1;ratioP1;P1;durP2;ratioP2;P2;SDS_P1;SDS_P2;PMS_P1;PMS_P2;Temp;Humidity;BMP_temperature;BMP_pressure;BME280_temperature;BME280_humidity;BME280_pressure;Samples;Min_cycle;Max_cycle;Signal;HPM_P1;HPM_P2
2021/09/15 00:01:53;;;;;;;7.57;5.18;;;;;;;;;;5034242;28;20053;-69
2021/09/15 00:04:19;;;;;;;5.47;4.22;;;;;;;;;;5033861;28;20053;-70
2021/09/15 00:06:46;;;;;;;6.25;4.00;;;;;;;;;;5034567;28;20057;-70
2021/09/15 00:09:12;;;;;;;6.78;5.18;;;;;;;;;;5033841;28;20053;-70
2021/09/15 00:11:39;;;;;;;8.73;4.97;;;;;;;;;;5033853;28;20397;-69
2021/09/15 00:14:05;;;;;;;6.97;4.60;;;;;;;;;;5033843;28;20056;-69
2021/09/15 00:16:33;;;;;;;6.43;4.57;;;;;;;;;;5033710;28;20057;-69
2021/09/15 00:19:00;;;;;;;8.50;5.15;;;;;;;;;;5034107;28;20050;-69
2021/09/15 00:21:26;;;;;;;5.32;4.18;;;;;;;;;;5033936;28;20045;-69
2021/09/15 00:23:52;;;;;;;7.43;4.45;;;;;;;;;;5033972;28;20052;-70
2021/09/15 00:26:19;;;;;;;7.22;4.82;;;;;;;;;;5033747;28;20049;-69
2021/09/15 00:28:45;;;;;;;8.32;4.80;;;;;;;;;;5042593;28;20060;-69
2021/09/15 00:31:12;;;;;;;6.32;4.38;;;;;;;;;;5038747;28;20060;-69
2021/09/15 00:33:39;;;;;;;6.28;4.85;;;;;;;;;;5052219;28;20052;-69
2021/09/15 00:36:06;;;;;;;7.05;4.53;;;;;;;;;;5053649;28;20055;-69
2021/09/15 00:38:32;;;;;;;6.38;4.70;;;;;;;;;;5053339;28;20055;-69
2021/09/15 00:40:59;;;;;;;5.80;4.32;;;;;;;;;;5053193;28;20057;-69
2021/09/15 00:43:25;;;;;;;8.35;4.90;;;;;;;;;;5053222;28;20057;-69
2021/09/15 00:45:51;;;;;;;9.93;5.70;;;;;;;;;;5053297;28;20483;-69
2021/09/15 00:48:18;;;;;;;10.10;5.65;;;;;;;;;;5053434;28;20052;-69
2021/09/15 00:50:46;;;;;;;6.25;4.45;;;;;;;;;;5053356;28;20052;-69
2021/09/15 00:53:12;;;;;;;9.45;5.15;;;;;;;;;;5052887;28;20056;-69
2021/09/15 00:55:39;;;;;;;9.23;5.05;;;;;;;;;;5053279;28;20049;-69
2021/09/15 00:58:05;;;;;;;9.68;4.88;;;;;;;;;;5050367;28;20439;-69
2021/09/15 01:00:32;;;;;;;6.00;4.55;;;;;;;;;;5033215;28;20064;-69
2021/09/15 01:02:58;;;;;;;7.65;4.82;;;;;;;;;;5050966;28;20490;-69
2021/09/15 01:05:25;;;;;;;6.38;5.00;;;;;;;;;;5052993;28;20056;-70
2021/09/15 01:07:53;;;;;;;5.97;4.60;;;;;;;;;;5053308;28;20053;-70
2021/09/15 01:10:19;;;;;;;7.70;5.03;;;;;;;;;;5053073;28;20053;-70
2021/09/15 01:12:46;;;;;;;7.13;4.90;;;;;;;;;;5052928;28;20053;-70
2021/09/15 01:15:12;;;;;;;8.05;5.63;;;;;;;;;;5053113;28;20399;-70
2021/09/15 01:17:38;;;;;;;6.82;5.18;;;;;;;;;;5053242;28;20060;-70
2021/09/15 01:20:06;;;;;;;7.22;4.63;;;;;;;;;;5052849;28;20052;-70
2021/09/15 01:22:34;;;;;;;7.53;4.97;;;;;;;;;;5052577;28;20060;-70
2021/09/15 01:25:00;;;;;;;7.30;5.07;;;;;;;;;;5052516;28;20060;-70
2021/09/15 01:27:27;;;;;;;6.32;4.68;;;;;;;;;;5052540;28;20060;-70
2021/09/15 01:29:53;;;;;;;10.43;5.18;;;;;;;;;;5046217;28;20045;-70
2021/09/15 01:32:19;;;;;;;9.20;6.07;;;;;;;;;;5052491;28;20071;-71
2021/09/15 01:34:48;;;;;;;8.13;5.30;;;;;;;;;;5032941;28;20484;-70
2021/09/15 01:37:16;;;;;;;8.65;5.80;;;;;;;;;;5032638;28;20165;-71
2021/09/15 01:39:44;;;;;;;7.55;5.40;;;;;;;;;;5032395;28;20055;-70
2021/09/15 01:42:11;;;;;;;7.28;4.97;;;;;;;;;;5032437;28;20053;-70
2021/09/15 01:44:39;;;;;;;7.78;5.45;;;;;;;;;;5032393;28;20045;-70
2021/09/15 01:47:07;;;;;;;6.97;5.03;;;;;;;;;;5045452;28;20064;-70
2021/09/15 01:49:35;;;;;;;7.00;5.15;;;;;;;;;;5042209;28;20053;-70
2021/09/15 01:52:02;;;;;;;7.57;4.95;;;;;;;;;;5032277;28;20052;-70
2021/09/15 01:54:31;;;;;;;6.88;5.47;;;;;;;;;;5032008;28;20056;-70
2021/09/15 01:56:59;;;;;;;8.25;4.63;;;;;;;;;;5031999;28;20050;-70
2021/09/15 01:59:26;;;;;;;7.65;5.22;;;;;;;;;;5032712;28;20064;-70
2021/09/15 02:01:52;;;;;;;6.72;4.70;;;;;;;;;;5046356;28;20049;-70
2021/09/15 02:04:19;;;;;;;7.53;4.80;;;;;;;;;;5051669;28;20060;-71
2021/09/15 02:06:45;;;;;;;7.32;4.75;;;;;;;;;;5051890;28;20049;-71
2021/09/15 02:09:12;;;;;;;6.35;4.82;;;;;;;;;;5052106;28;20437;-70
2021/09/15 02:11:40;;;;;;;8.93;5.18;;;;;;;;;;5052114;28;20574;-70
2021/09/15 02:14:08;;;;;;;7.13;4.80;;;;;;;;;;5052013;28;20045;-70
2021/09/15 02:16:34;;;;;;;5.57;4.07;;;;;;;;;;5051555;28;20053;-70
2021/09/15 02:19:01;;;;;;;9.18;5.45;;;;;;;;;;5051888;28;20049;-70
2021/09/15 02:21:27;;;;;;;7.32;4.68;;;;;;;;;;5051484;28;20063;-70
2021/09/15 02:23:55;;;;;;;7.80;5.10;;;;;;;;;;5051560;28;20049;-70
2021/09/15 02:26:21;;;;;;;5.80;4.38;;;;;;;;;;5052087;28;20395;-70
2021/09/15 02:28:48;;;;;;;8.82;5.95;;;;;;;;;;5049190;28;20057;-70
2021/09/15 02:31:17;;;;;;;8.73;4.95;;;;;;;;;;5043955;28;20052;-70
2021/09/15 02:33:43;;;;;;;8.10;4.93;;;;;;;;;;5040161;28;20053;-70
2021/09/15 02:36:10;;;;;;;9.23;5.78;;;;;;;;;;5031587;28;20053;-70
2021/09/15 02:38:36;;;;;;;6.90;5.03;;;;;;;;;;5031590;28;20072;-70
2021/09/15 02:41:02;;;;;;;5.95;4.32;;;;;;;;;;5031487;28;20059;-70
2021/09/15 02:43:29;;;;;;;6.38;4.72;;;;;;;;;;5031779;28;20049;-70
2021/09/15 02:45:55;;;;;;;8.70;5.15;;;;;;;;;;5031547;28;20057;-70
2021/09/15 02:48:23;;;;;;;7.53;5.22;;;;;;;;;;5031492;28;20049;-70
2021/09/15 02:50:49;;;;;;;8.50;5.32;;;;;;;;;;5032204;28;20049;-70
2021/09/15 02:53:16;;;;;;;7.43;4.60;;;;;;;;;;5035797;28;20061;-70
2021/09/15 02:55:42;;;;;;;6.35;4.90;;;;;;;;;;5035798;28;20049;-70
2021/09/15 02:58:09;;;;;;;7.38;4.55;;;;;;;;;;5036085;28;20045;-70
2021/09/15 03:00:35;;;;;;;8.98;5.82;;;;;;;;;;5035670;28;20054;-70
2021/09/15 03:03:02;;;;;;;8.50;5.18;;;;;;;;;;5035272;28;20057;-70
2021/09/15 03:05:30;;;;;;;5.25;4.15;;;;;;;;;;5035697;28;20057;-70
2021/09/15 03:07:57;;;;;;;6.22;4.65;;;;;;;;;;5035626;28;20053;-70
2021/09/15 03:10:25;;;;;;;9.23;5.13;;;;;;;;;;5035417;28;20132;-70
2021/09/15 03:12:52;;;;;;;6.45;4.78;;;;;;;;;;5035316;28;20045;-70
2021/09/15 03:15:18;;;;;;;7.45;5.45;;;;;;;;;;5035300;28;20060;-70
2021/09/15 03:17:45;;;;;;;7.28;5.05;;;;;;;;;;5035254;28;20380;-70
2021/09/15 03:20:12;;;;;;;7.63;5.60;;;;;;;;;;5035014;28;20056;-71
2021/09/15 03:22:39;;;;;;;7.72;4.97;;;;;;;;;;5035042;28;20496;-70
2021/09/15 03:25:08;;;;;;;6.43;4.70;;;;;;;;;;5035019;28;20049;-70
2021/09/15 03:27:34;;;;;;;8.80;5.20;;;;;;;;;;5037465;28;20151;-70
2021/09/15 03:30:01;;;;;;;7.20;4.95;;;;;;;;;;5053115;28;20040;-70
2021/09/15 03:32:27;;;;;;;7.65;4.50;;;;;;;;;;5045558;28;20060;-70
2021/09/15 03:34:54;;;;;;;7.35;4.80;;;;;;;;;;5046895;28;20048;-70
2021/09/15 03:37:20;;;;;;;6.80;4.63;;;;;;;;;;5054636;28;20502;-70
2021/09/15 03:39:48;;;;;;;7.32;4.60;;;;;;;;;;5054759;28;20106;-70
2021/09/15 03:42:14;;;;;;;8.35;5.03;;;;;;;;;;5054591;28;20056;-70
2021/09/15 03:44:41;;;;;;;8.18;5.05;;;;;;;;;;5054651;28;20049;-70
2021/09/15 03:47:07;;;;;;;6.30;4.35;;;;;;;;;;5054853;28;20045;-70
2021/09/15 03:49:34;;;;;;;7.47;5.25;;;;;;;;;;5054494;28;20061;-70
2021/09/15 03:52:03;;;;;;;8.07;4.72;;;;;;;;;;5054616;28;20044;-70
2021/09/15 03:54:31;;;;;;;7.55;4.65;;;;;;;;;;5054094;28;20065;-69
2021/09/15 03:56:58;;;;;;;10.43;5.10;;;;;;;;;;5054284;28;20123;-69
2021/09/15 03:59:25;;;;;;;7.43;5.30;;;;;;;;;;5049030;28;20049;-70
2021/09/15 04:01:51;;;;;;;8.98;4.95;;;;;;;;;;5034258;28;20058;-69
2021/09/15 04:04:18;;;;;;;7.47;4.88;;;;;;;;;;5034418;28;20049;-69
2021/09/15 04:06:44;;;;;;;6.72;5.10;;;;;;;;;;5033925;28;20054;-69
2021/09/15 04:09:10;;;;;;;7.20;4.70;;;;;;;;;;5033948;28;20076;-69
2021/09/15 04:11:37;;;;;;;8.20;5.05;;;;;;;;;;5034234;28;20072;-69
2021/09/15 04:14:05;;;;;;;6.20;4.53;;;;;;;;;;5033693;28;20064;-69
2021/09/15 04:16:31;;;;;;;6.50;4.68;;;;;;;;;;5033800;28;20488;-69
2021/09/15 04:18:57;;;;;;;6.07;4.22;;;;;;;;;;5049982;28;20056;-69
2021/09/15 04:21:24;;;;;;;6.68;4.60;;;;;;;;;;5053207;28;20411;-69
2021/09/15 04:24:03;;;;;;;8.02;5.53;;;;;;;;;;5051758;28;20060;-69
2021/09/15 04:31:59;;;;;;;6.93;4.95;;;;;;;;;;5048809;28;20796;-69
2021/09/15 04:34:25;;;;;;;7.38;4.72;;;;;;;;;;5052303;28;20076;-71
2021/09/15 04:36:51;;;;;;;8.15;5.57;;;;;;;;;;5053020;28;20056;-71
2021/09/15 04:39:18;;;;;;;7.95;5.03;;;;;;;;;;5053159;28;20049;-70
2021/09/15 04:41:45;;;;;;;7.80;5.25;;;;;;;;;;5053280;28;20049;-70
2021/09/15 04:44:11;;;;;;;7.78;5.97;;;;;;;;;;5048386;28;20056;-71
2021/09/15 04:46:39;;;;;;;9.70;5.53;;;;;;;;;;5052646;28;20052;-70
2021/09/15 04:49:06;;;;;;;11.50;5.90;;;;;;;;;;5053065;28;20523;-69
2021/09/15 04:51:32;;;;;;;6.63;4.95;;;;;;;;;;5058128;28;20056;-71
2021/09/15 04:53:59;;;;;;;11.75;5.32;;;;;;;;;;5058915;28;20060;-68
2021/09/15 04:56:25;;;;;;;9.20;5.55;;;;;;;;;;5052808;28;20045;-70
2021/09/15 04:58:51;;;;;;;6.90;4.95;;;;;;;;;;5039938;28;20056;-70
2021/09/15 05:01:18;;;;;;;9.15;5.50;;;;;;;;;;5052979;28;20399;-69
2021/09/15 05:03:46;;;;;;;7.22;5.28;;;;;;;;;;5052823;28;20060;-68
2021/09/15 05:06:12;;;;;;;8.20;5.45;;;;;;;;;;5053593;28;20057;-69
2021/09/15 05:08:39;;;;;;;8.35;5.60;;;;;;;;;;5053138;28;20607;-70
2021/09/15 05:11:05;;;;;;;8.30;5.00;;;;;;;;;;5052644;28;20056;-69
2021/09/15 05:13:32;;;;;;;10.80;6.40;;;;;;;;;;5052234;28;20103;-69
2021/09/15 05:15:58;;;;;;;9.02;6.25;;;;;;;;;;5053052;28;20045;-69
2021/09/15 05:18:26;;;;;;;8.65;5.68;;;;;;;;;;5052722;28;20048;-69
2021/09/15 05:20:54;;;;;;;8.82;6.00;;;;;;;;;;5052852;28;20406;-68
2021/09/15 05:23:20;;;;;;;8.30;5.40;;;;;;;;;;5053148;28;20068;-69
2021/09/15 05:25:47;;;;;;;6.43;5.03;;;;;;;;;;5053003;28;20045;-69
2021/09/15 05:28:13;;;;;;;7.68;4.88;;;;;;;;;;5045833;28;20510;-69
2021/09/15 05:30:40;;;;;;;9.48;5.78;;;;;;;;;;5032571;28;20076;-69
2021/09/15 05:33:08;;;;;;;8.60;6.47;;;;;;;;;;5042818;28;20049;-68
2021/09/15 05:35:34;;;;;;;11.13;8.27;;;;;;;;;;5041152;28;20063;-68
2021/09/15 05:38:02;;;;;;;8.85;6.15;;;;;;;;;;5045563;28;20052;-68
2021/09/15 05:40:28;;;;;;;8.35;5.63;;;;;;;;;;5052365;28;20060;-68
2021/09/15 05:42:55;;;;;;;6.80;5.15;;;;;;;;;;5040459;28;20053;-68
2021/09/15 05:45:21;;;;;;;10.57;6.30;;;;;;;;;;5031900;28;20056;-69
2021/09/15 05:47:48;;;;;;;7.60;5.38;;;;;;;;;;5031794;28;20053;-69
2021/09/15 05:50:14;;;;;;;7.05;5.53;;;;;;;;;;5032494;28;20073;-69
2021/09/15 05:52:41;;;;;;;7.10;4.88;;;;;;;;;;5032517;28;20495;-70
2021/09/15 05:55:09;;;;;;;7.03;5.43;;;;;;;;;;5031250;28;20053;-68
2021/09/15 05:57:37;;;;;;;7.35;5.50;;;;;;;;;;5031734;28;20042;-68
2021/09/15 06:00:05;;;;;;;6.80;5.10;;;;;;;;;;5041809;28;20450;-68
2021/09/15 06:02:32;;;;;;;7.70;5.20;;;;;;;;;;5051150;28;20057;-69
2021/09/15 06:04:58;;;;;;;6.45;4.88;;;;;;;;;;5051154;28;20072;-68
2021/09/15 06:07:25;;;;;;;7.20;5.13;;;;;;;;;;5051126;28;20049;-68
2021/09/15 06:09:51;;;;;;;8.52;5.72;;;;;;;;;;5051975;28;20049;-68
2021/09/15 06:12:19;;;;;;;7.32;4.97;;;;;;;;;;5051987;28;20053;-69
2021/09/15 06:14:45;;;;;;;8.90;5.15;;;;;;;;;;5051894;28;20486;-69
2021/09/15 06:17:11;;;;;;;7.82;5.80;;;;;;;;;;5051973;28;20045;-68
2021/09/15 06:19:38;;;;;;;8.80;5.57;;;;;;;;;;5051941;28;20518;-69
2021/09/15 06:22:04;;;;;;;9.55;4.85;;;;;;;;;;5052109;28;20060;-69
2021/09/15 06:24:31;;;;;;;10.80;5.60;;;;;;;;;;5050602;28;20484;-68
2021/09/15 06:26:57;;;;;;;8.05;5.05;;;;;;;;;;5038184;28;20053;-69
2021/09/15 06:29:25;;;;;;;8.07;5.68;;;;;;;;;;5031519;28;20068;-68
2021/09/15 06:31:51;;;;;;;10.38;6.45;;;;;;;;;;5031566;28;20049;-69
2021/09/15 06:34:18;;;;;;;8.95;6.32;;;;;;;;;;5037395;28;20056;-69
2021/09/15 06:36:44;;;;;;;11.32;6.70;;;;;;;;;;5051161;28;20060;-68
2021/09/15 06:39:11;;;;;;;10.98;7.43;;;;;;;;;;5051426;28;20056;-68
2021/09/15 06:41:38;;;;;;;12.60;6.72;;;;;;;;;;5051297;28;20051;-68
2021/09/15 06:44:05;;;;;;;9.07;5.90;;;;;;;;;;5051308;28;20068;-69
2021/09/15 06:46:32;;;;;;;10.68;7.00;;;;;;;;;;5051530;28;20045;-68
2021/09/15 06:48:59;;;;;;;9.90;6.80;;;;;;;;;;5051511;28;20064;-68
2021/09/15 06:51:25;;;;;;;11.20;6.95;;;;;;;;;;5051505;28;20052;-68
2021/09/15 06:53:52;;;;;;;10.73;7.32;;;;;;;;;;5050761;28;20119;-68
2021/09/15 06:56:18;;;;;;;10.68;7.82;;;;;;;;;;5051181;28;20438;-68
2021/09/15 06:58:44;;;;;;;10.80;6.50;;;;;;;;;;5048107;28;20479;-69
2021/09/15 07:01:11;;;;;;;11.15;7.68;;;;;;;;;;5041726;28;20049;-68
2021/09/15 07:03:39;;;;;;;11.20;7.82;;;;;;;;;;5051465;28;20049;-68
2021/09/15 07:06:05;;;;;;;9.48;7.38;;;;;;;;;;5051377;28;20051;-68
2021/09/15 07:08:32;;;;;;;13.35;8.20;;;;;;;;;;5051657;28;20041;-68
2021/09/15 07:10:58;;;;;;;10.43;7.82;;;;;;;;;;5050946;28;20076;-68
2021/09/15 07:13:28;;;;;;;11.52;7.43;;;;;;;;;;5051188;28;20059;-69
2021/09/15 07:15:57;;;;;;;12.35;6.90;;;;;;;;;;5051387;28;20049;-69
2021/09/15 07:18:24;;;;;;;12.23;7.78;;;;;;;;;;5051335;28;20049;-69
2021/09/15 07:20:52;;;;;;;15.15;8.85;;;;;;;;;;5051264;28;20526;-69
2021/09/15 07:23:18;;;;;;;12.27;7.95;;;;;;;;;;5051405;28;20049;-69
2021/09/15 07:25:44;;;;;;;10.35;7.38;;;;;;;;;;5051066;28;20477;-69
2021/09/15 07:28:11;;;;;;;11.55;8.40;;;;;;;;;;5037564;28;20483;-69
2021/09/15 07:30:37;;;;;;;10.57;7.70;;;;;;;;;;5031814;28;20526;-69
2021/09/15 07:33:04;;;;;;;10.73;8.25;;;;;;;;;;5031026;28;20144;-69
2021/09/15 07:35:31;;;;;;;11.18;8.25;;;;;;;;;;5041017;28;20052;-69
2021/09/15 07:37:58;;;;;;;13.25;8.77;;;;;;;;;;5041228;28;20041;-69
2021/09/15 07:40:25;;;;;;;11.63;7.95;;;;;;;;;;5051319;28;20060;-69
2021/09/15 07:42:51;;;;;;;11.88;7.82;;;;;;;;;;5055018;28;20056;-69
2021/09/15 07:45:18;;;;;;;10.55;7.60;;;;;;;;;;5054712;28;20419;-69
2021/09/15 07:47:44;;;;;;;13.70;8.43;;;;;;;;;;5055183;28;20380;-69
2021/09/15 07:50:12;;;;;;;12.43;7.72;;;;;;;;;;5054411;28;20049;-69
2021/09/15 07:52:38;;;;;;;13.73;8.07;;;;;;;;;;5054721;28;20060;-69
2021/09/15 07:55:07;;;;;;;10.23;7.68;;;;;;;;;;5054616;28;20049;-69
2021/09/15 07:57:34;;;;;;;9.65;7.50;;;;;;;;;;5046545;28;20073;-70
2021/09/15 08:00:00;;;;;;;10.23;7.63;;;;;;;;;;5034352;28;20152;-69
2021/09/15 08:02:27;;;;;;;11.52;7.80;;;;;;;;;;5034214;28;20054;-69
2021/09/15 08:04:53;;;;;;;11.00;7.32;;;;;;;;;;5034184;28;20046;-69
2021/09/15 08:07:19;;;;;;;10.55;7.53;;;;;;;;;;5034108;28;20046;-69
2021/09/15 08:09:46;;;;;;;10.40;7.93;;;;;;;;;;5034437;28;20436;-69
2021/09/15 08:12:14;;;;;;;12.75;8.07;;;;;;;;;;5034270;28;20392;-70
2021/09/15 08:14:40;;;;;;;11.35;7.65;;;;;;;;;;5034393;28;20061;-70
2021/09/15 08:17:07;;;;;;;10.65;7.57;;;;;;;;;;5034201;28;20404;-70
2021/09/15 08:19:33;;;;;;;10.15;7.53;;;;;;;;;;5034424;28;20045;-70
2021/09/15 08:22:00;;;;;;;12.48;6.53;;;;;;;;;;5034339;28;20049;-69
2021/09/15 08:24:26;;;;;;;9.50;7.22;;;;;;;;;;5034083;28;20717;-69
2021/09/15 08:26:53;;;;;;;12.75;8.38;;;;;;;;;;5034134;28;20426;-70
2021/09/15 08:29:20;;;;;;;11.82;8.18;;;;;;;;;;5045912;28;20056;-69
2021/09/15 08:31:47;;;;;;;10.30;7.40;;;;;;;;;;5054117;28;20060;-70
2021/09/15 08:34:13;;;;;;;10.18;7.22;;;;;;;;;;5053454;28;20049;-69
2021/09/15 09:30:53;;;;;;;11.43;8.48;;;;;;;;;;5065439;28;20052;-70
2021/09/15 09:33:20;;;;;;;10.52;8.02;;;;;;;;;;5068470;28;20078;-70
2021/09/15 09:35:48;;;;;;;13.32;8.07;;;;;;;;;;5069508;28;20052;-70
2021/09/15 09:38:25;;;;;;;12.25;8.75;;;;;;;;;;5069640;28;20048;-70
2021/09/15 09:41:00;;;;;;;11.73;8.55;;;;;;;;;;5069311;28;20048;-70
2021/09/15 09:43:27;;;;;;;11.98;9.00;;;;;;;;;;5068852;28;20049;-69
2021/09/15 09:45:55;;;;;;;11.27;8.05;;;;;;;;;;5069291;28;20053;-70
2021/09/15 09:48:35;;;;;;;10.77;8.60;;;;;;;;;;5069425;28;20166;-70
2021/09/15 09:51:04;;;;;;;12.20;8.27;;;;;;;;;;5069295;28;20048;-71
2021/09/15 09:53:30;;;;;;;14.85;8.80;;;;;;;;;;5068412;28;20098;-70
2021/09/15 09:55:58;;;;;;;8.75;7.45;;;;;;;;;;5068483;28;20055;-70
2021/09/15 09:58:26;;;;;;;10.95;7.88;;;;;;;;;;5068371;28;20545;-70
2021/09/15 10:00:56;;;;;;;10.35;7.68;;;;;;;;;;5068701;28;20053;-69
2021/09/15 10:03:23;;;;;;;13.50;9.95;;;;;;;;;;5069134;28;20421;-69
2021/09/15 10:05:50;;;;;;;12.73;7.95;;;;;;;;;;5068783;28;20374;-70
2021/09/15 10:08:19;;;;;;;10.95;8.52;;;;;;;;;;5068404;28;20044;-70
2021/09/15 10:10:48;;;;;;;11.07;8.32;;;;;;;;;;5048968;28;20056;-70
2021/09/15 10:13:15;;;;;;;12.43;8.88;;;;;;;;;;5048903;28;20144;-69
2021/09/15 10:15:47;;;;;;;12.95;8.80;;;;;;;;;;5047770;28;20049;-69
2021/09/15 10:18:16;;;;;;;12.73;8.25;;;;;;;;;;5048420;28;20051;-69
2021/09/15 10:20:47;;;;;;;10.55;8.18;;;;;;;;;;5068826;28;20129;-69
2021/09/15 10:23:39;;;;;;;9.63;7.95;;;;;;;;;;5068716;28;20052;-70
2021/09/15 10:26:31;;;;;;;13.13;9.20;;;;;;;;;;5048664;28;20067;-69
2021/09/15 10:29:18;;;;;;;10.68;7.07;;;;;;;;;;5056949;28;20126;-69
2021/09/15 10:31:57;;;;;;;8.23;6.78;;;;;;;;;;5062485;28;20067;-70
2021/09/15 10:34:47;;;;;;;12.68;8.15;;;;;;;;;;5048443;28;20052;-70
2021/09/15 10:37:51;;;;;;;12.55;7.25;;;;;;;;;;5048211;28;20049;-69
2021/09/15 10:40:40;;;;;;;10.13;7.10;;;;;;;;;;5047354;28;20708;-69
2021/09/15 10:43:39;;;;;;;10.80;6.97;;;;;;;;;;5047688;28;20052;-69
2021/09/15 10:46:30;;;;;;;6.97;5.95;;;;;;;;;;5035804;28;20060;-69
2021/09/15 10:49:32;;;;;;;9.43;6.95;;;;;;;;;;5029614;28;20062;-68
2021/09/15 10:52:26;;;;;;;10.23;5.93;;;;;;;;;;5046442;28;20465;-69
2021/09/15 10:54:55;;;;;;;8.90;6.45;;;;;;;;;;5046151;28;20581;-69
2021/09/15 10:57:22;;;;;;;10.18;6.25;;;;;;;;;;5043781;28;20048;-68
2021/09/15 10:59:50;;;;;;;9.45;5.63;;;;;;;;;;5045795;28;20049;-69
2021/09/15 11:02:25;;;;;;;8.27;6.05;;;;;;;;;;5046105;28;20513;-68
2021/09/15 11:04:51;;;;;;;8.20;6.47;;;;;;;;;;5045976;28;20055;-68
2021/09/15 11:07:59;;;;;;;8.18;5.63;;;;;;;;;;5046015;28;20068;-68
2021/09/15 11:10:42;;;;;;;8.40;6.10;;;;;;;;;;5046139;28;20563;-68
2021/09/15 11:13:10;;;;;;;6.05;5.07;;;;;;;;;;5047351;28;20506;-68
2021/09/15 11:15:38;;;;;;;7.93;5.35;;;;;;;;;;5050404;28;20053;-70
2021/09/15 11:18:05;;;;;;;8.93;5.53;;;;;;;;;;5050220;28;20498;-70
2021/09/15 11:20:34;;;;;;;6.53;5.30;;;;;;;;;;5049906;28;20080;-67
2021/09/15 11:23:07;;;;;;;6.35;5.18;;;;;;;;;;5048779;28;20080;-70
2021/09/15 11:25:35;;;;;;;6.75;5.32;;;;;;;;;;5045664;28;20059;-67
2021/09/15 11:28:12;;;;;;;7.80;4.72;;;;;;;;;;5049778;28;20452;-67
2021/09/15 11:30:40;;;;;;;6.00;3.65;;;;;;;;;;5052273;28;20281;-67
2021/09/15 11:33:07;;;;;;;6.05;3.92;;;;;;;;;;5051350;28;20428;-70
2021/09/15 11:35:35;;;;;;;6.10;3.88;;;;;;;;;;5051407;28;20055;-68
2021/09/15 11:38:02;;;;;;;6.68;3.92;;;;;;;;;;5052553;28;20098;-68
2021/09/15 11:40:31;;;;;;;7.28;3.88;;;;;;;;;;5053607;28;20550;-69
2021/09/15 11:43:02;;;;;;;6.85;4.05;;;;;;;;;;5055053;28;20049;-68
2021/09/15 11:45:29;;;;;;;6.43;3.85;;;;;;;;;;5052666;28;20049;-68
2021/09/15 11:47:56;;;;;;;7.97;3.60;;;;;;;;;;5053696;28;20048;-70
2021/09/15 11:50:24;;;;;;;10.13;4.18;;;;;;;;;;5054773;28;20136;-70
2021/09/15 11:52:54;;;;;;;7.88;3.40;;;;;;;;;;5055023;28;20514;-70
2021/09/15 11:55:20;;;;;;;5.07;3.80;;;;;;;;;;5052363;28;20060;-69
2021/09/15 11:57:49;;;;;;;5.72;3.40;;;;;;;;;;5054864;28;20515;-69
2021/09/15 12:00:16;;;;;;;6.53;3.20;;;;;;;;;;5045727;28;20124;-70
2021/09/15 12:02:45;;;;;;;7.55;3.58;;;;;;;;;;5054900;28;20390;-70
2021/09/15 12:05:12;;;;;;;6.82;3.47;;;;;;;;;;5052689;28;20075;-70
2021/09/15 12:07:39;;;;;;;4.43;3.53;;;;;;;;;;5052101;28;20410;-69
2021/09/15 12:10:07;;;;;;;6.13;3.10;;;;;;;;;;5054714;28;20045;-70
2021/09/15 12:12:34;;;;;;;6.00;3.25;;;;;;;;;;5054492;28;20156;-70
2021/09/15 12:15:02;;;;;;;6.10;3.45;;;;;;;;;;5054191;28;20136;-68
2021/09/15 12:17:29;;;;;;;6.90;2.95;;;;;;;;;;5050138;28;20060;-70
2021/09/15 12:19:56;;;;;;;6.78;3.00;;;;;;;;;;5054351;28;20425;-70
2021/09/15 12:22:26;;;;;;;6.72;3.45;;;;;;;;;;5054343;28;20133;-70
2021/09/15 12:25:04;;;;;;;7.72;3.45;;;;;;;;;;5050500;28;20072;-69
2021/09/15 12:27:31;;;;;;;6.13;3.33;;;;;;;;;;5053129;28;20056;-70
2021/09/15 12:29:59;;;;;;;6.78;3.55;;;;;;;;;;5054036;28;20059;-69
2021/09/15 12:32:31;;;;;;;8.77;3.65;;;;;;;;;;5054230;28;20502;-70
2021/09/15 12:34:57;;;;;;;6.13;3.63;;;;;;;;;;5050908;28;20049;-70
2021/09/15 12:37:24;;;;;;;8.80;3.50;;;;;;;;;;5049155;28;20060;-69
2021/09/15 12:39:52;;;;;;;6.97;3.33;;;;;;;;;;5053569;28;20068;-67
2021/09/15 12:42:20;;;;;;;8.15;3.35;;;;;;;;;;5054240;28;20060;-70
2021/09/15 12:44:47;;;;;;;4.88;3.15;;;;;;;;;;5052311;28;20067;-69
2021/09/15 12:47:14;;;;;;;6.22;3.90;;;;;;;;;;5051802;28;20487;-68
2021/09/15 12:49:43;;;;;;;6.45;3.22;;;;;;;;;;5054425;28;20041;-69
2021/09/15 12:52:13;;;;;;;6.00;3.88;;;;;;;;;;5054259;28;20402;-69
2021/09/15 12:54:40;;;;;;;7.05;3.88;;;;;;;;;;5053149;28;20045;-69
2021/09/15 12:57:17;;;;;;;6.57;3.72;;;;;;;;;;5049499;28;20219;-69
2021/09/15 12:59:44;;;;;;;8.70;4.32;;;;;;;;;;5053876;28;20055;-69
2021/09/15 13:02:18;;;;;;;11.20;4.18;;;;;;;;;;5053920;28;20045;-69
2021/09/15 13:04:45;;;;;;;7.20;4.10;;;;;;;;;;5053009;28;20053;-69
2021/09/15 13:07:12;;;;;;;6.80;3.90;;;;;;;;;;5051264;28;20514;-69
2021/09/15 13:09:38;;;;;;;7.05;4.15;;;;;;;;;;5053139;28;20045;-69
2021/09/15 13:12:05;;;;;;;8.18;4.43;;;;;;;;;;5053582;28;20474;-69
2021/09/15 13:14:32;;;;;;;7.82;3.67;;;;;;;;;;5053280;28;20110;-69
2021/09/15 13:16:59;;;;;;;8.15;3.78;;;;;;;;;;5052541;28;20126;-69
2021/09/15 13:19:25;;;;;;;6.90;4.15;;;;;;;;;;5053253;28;20099;-69
2021/09/15 13:21:53;;;;;;;6.80;4.03;;;;;;;;;;5053030;28;20044;-69
2021/09/15 13:24:19;;;;;;;5.97;3.95;;;;;;;;;;5052444;28;20057;-69
2021/09/15 13:26:46;;;;;;;6.15;4.40;;;;;;;;;;5049024;28;20053;-68
2021/09/15 13:29:12;;;;;;;6.75;4.18;;;;;;;;;;5053389;28;20049;-70
2021/09/15 13:31:39;;;;;;;7.97;3.97;;;;;;;;;;5052884;28;20135;-70
2021/09/15 13:34:05;;;;;;;6.00;4.25;;;;;;;;;;5052307;28;20057;-69
2021/09/15 13:36:32;;;;;;;8.65;4.32;;;;;;;;;;5043684;28;20049;-69
2021/09/15 13:38:59;;;;;;;8.13;4.82;;;;;;;;;;5051757;28;20051;-70
2021/09/15 13:41:26;;;;;;;8.45;5.03;;;;;;;;;;5052719;28;20048;-69
2021/09/15 13:43:52;;;;;;;8.40;4.97;;;;;;;;;;5052428;28;20691;-69
2021/09/15 13:46:19;;;;;;;10.32;5.47;;;;;;;;;;5047852;28;20538;-69
2021/09/15 13:48:45;;;;;;;8.18;5.18;;;;;;;;;;5052367;28;20049;-70
2021/09/15 13:51:12;;;;;;;7.93;4.85;;;;;;;;;;5052543;28;20064;-69
2021/09/15 13:53:38;;;;;;;6.93;4.40;;;;;;;;;;5052440;28;20059;-70
2021/09/15 13:56:06;;;;;;;6.18;4.30;;;;;;;;;;5047648;28;20049;-70
2021/09/15 13:58:32;;;;;;;6.10;4.38;;;;;;;;;;5052176;28;20053;-71
2021/09/15 14:00:59;;;;;;;8.60;4.70;;;;;;;;;;5052576;28;20041;-69
2021/09/15 14:03:26;;;;;;;7.53;4.70;;;;;;;;;;5052062;28;20482;-70
2021/09/15 14:05:52;;;;;;;8.90;4.70;;;;;;;;;;5051355;28;20049;-69
2021/09/15 14:08:19;;;;;;;7.40;5.18;;;;;;;;;;5050362;28;20061;-69
2021/09/15 14:10:45;;;;;;;8.48;5.15;;;;;;;;;;5052397;28;20045;-70
2021/09/15 14:13:13;;;;;;;8.70;4.90;;;;;;;;;;5052052;28;20053;-70
2021/09/15 14:15:40;;;;;;;6.80;4.68;;;;;;;;;;5051516;28;20463;-69
2021/09/15 14:18:06;;;;;;;6.80;4.38;;;;;;;;;;5051203;28;20449;-70
2021/09/15 14:20:33;;;;;;;8.70;5.97;;;;;;;;;;5052224;28;20061;-69
2021/09/15 14:22:59;;;;;;;6.25;4.80;;;;;;;;;;5052107;28;20045;-70
2021/09/15 14:25:26;;;;;;;9.57;5.07;;;;;;;;;;5051320;28;20079;-70
2021/09/15 14:27:53;;;;;;;7.40;5.22;;;;;;;;;;5049226;28;20053;-70
2021/09/15 14:30:20;;;;;;;8.93;5.80;;;;;;;;;;5052178;28;20091;-70
2021/09/15 14:32:47;;;;;;;7.50;5.03;;;;;;;;;;5051616;28;20426;-69
2021/09/15 14:35:14;;;;;;;9.85;5.95;;;;;;;;;;5049616;28;20052;-69
2021/09/15 14:37:41;;;;;;;7.88;5.40;;;;;;;;;;5044364;28;20135;-70
2021/09/15 14:40:08;;;;;;;7.53;5.00;;;;;;;;;;5043468;28;20056;-70
2021/09/15 14:42:35;;;;;;;8.50;5.53;;;;;;;;;;5051486;28;20048;-70
2021/09/15 14:45:01;;;;;;;11.77;5.30;;;;;;;;;;5049464;28;20116;-70
2021/09/15 14:47:29;;;;;;;7.57;5.40;;;;;;;;;;5048101;28;20413;-70
2021/09/15 14:49:56;;;;;;;7.60;5.00;;;;;;;;;;5051627;28;20045;-70
2021/09/15 14:52:22;;;;;;;8.57;6.10;;;;;;;;;;5051646;28;20055;-69
2021/09/15 14:54:49;;;;;;;8.48;5.22;;;;;;;;;;5049752;28;20106;-69
2021/09/15 14:57:15;;;;;;;7.65;5.20;;;;;;;;;;5048912;28;20045;-69
2021/09/15 14:59:42;;;;;;;9.63;5.47;;;;;;;;;;5051609;28;20048;-70
2021/09/15 15:02:09;;;;;;;6.55;5.07;;;;;;;;;;5051745;28;20045;-70
2021/09/15 15:04:37;;;;;;;8.73;5.53;;;;;;;;;;5051408;28;20061;-70
2021/09/15 15:07:04;;;;;;;10.65;6.28;;;;;;;;;;5047619;28;20395;-70
2021/09/15 15:09:31;;;;;;;11.07;6.13;;;;;;;;;;5051574;28;20049;-69
2021/09/15 15:11:58;;;;;;;7.82;5.80;;;;;;;;;;5051405;28;20106;-70
2021/09/15 15:14:25;;;;;;;9.63;5.50;;;;;;;;;;5051235;28;20049;-69
2021/09/15 15:16:51;;;;;;;7.40;5.47;;;;;;;;;;5048476;28;20045;-70
2021/09/15 15:19:18;;;;;;;11.18;6.20;;;;;;;;;;5051867;28;20057;-70
2021/09/15 15:21:45;;;;;;;8.10;5.68;;;;;;;;;;5051555;28;20406;-70
2021/09/15 15:24:12;;;;;;;10.38;5.78;;;;;;;;;;5051543;28;20076;-70
2021/09/15 15:26:39;;;;;;;10.55;6.47;;;;;;;;;;5048244;28;20061;-70
2021/09/15 15:29:05;;;;;;;11.18;5.63;;;;;;;;;;5051273;28;20057;-70
2021/09/15 15:31:33;;;;;;;9.70;5.30;;;;;;;;;;5051684;28;20053;-70
2021/09/15 15:33:59;;;;;;;12.05;6.72;;;;;;;;;;5052036;28;20471;-70
2021/09/15 15:36:26;;;;;;;9.18;5.38;;;;;;;;;;5046286;28;20410;-70
2021/09/15 15:38:54;;;;;;;8.05;4.90;;;;;;;;;;5049027;28;20485;-69
2021/09/15 15:41:20;;;;;;;8.13;5.18;;;;;;;;;;5051081;28;20382;-69
2021/09/15 15:43:46;;;;;;;9.23;5.07;;;;;;;;;;5051350;28;20454;-70
2021/09/15 15:46:13;;;;;;;5.85;4.75;;;;;;;;;;5048431;28;20049;-70